createdAt,value
2018-07-19T00:05:00.945Z,18.00
2018-07-19T00:07:30.035Z,18.00
2018-07-19T00:09:59.501Z,18.00
2018-07-19T00:12:28.574Z,17.90
2018-07-19T00:14:57.662Z,17.90
2018-07-19T00:17:26.723Z,17.80
2018-07-19T00:19:55.720Z,17.70
2018-07-19T00:22:24.910Z,17.70
2018-07-19T00:24:53.950Z,17.70
2018-07-19T00:27:23.257Z,17.70
2018-07-19T00:29:52.237Z,17.70
2018-07-19T00:32:21.226Z,17.70
2018-07-19T00:34:50.337Z,17.60
2018-07-19T00:37:19.581Z,17.60
2018-07-19T00:39:48.719Z,17.60
2018-07-19T00:42:17.927Z,17.60
2018-07-19T00:44:46.881Z,17.60
2018-07-19T00:47:15.876Z,17.60
2018-07-19T00:49:44.860Z,17.60
2018-07-19T00:52:13.902Z,17.50
2018-07-19T00:54:42.862Z,17.40
2018-07-19T01:02:09.195Z,17.40
2018-07-19T01:04:38.128Z,17.40
2018-07-19T01:07:07.101Z,17.30
2018-07-19T01:09:36.132Z,17.30
2018-07-19T01:12:05.192Z,17.30
2018-07-19T01:14:34.200Z,17.30
2018-07-19T01:17:03.189Z,17.30
2018-07-19T01:19:32.206Z,17.30
2018-07-19T01:22:01.245Z,17.30
2018-07-19T01:24:30.209Z,17.20
2018-07-19T01:26:59.253Z,17.20
2018-07-19T01:29:28.285Z,17.20
2018-07-19T01:31:57.333Z,17.20
2018-07-19T01:36:55.074Z,17.00
2018-07-19T01:39:24.132Z,17.00
2018-07-19T01:42:32.810Z,17.00
2018-07-19T01:45:02.135Z,17.00
2018-07-19T01:52:28.460Z,16.80
2018-07-19T01:54:57.713Z,16.70
2018-07-19T01:59:55.445Z,16.70
2018-07-19T02:02:24.585Z,16.70
2018-07-19T02:04:53.547Z,16.60
2018-07-19T02:07:22.981Z,16.60
2018-07-19T02:12:20.562Z,16.60
2018-07-19T02:14:49.529Z,16.60
2018-07-19T02:17:18.573Z,16.60
2018-07-19T02:19:47.612Z,16.60
2018-07-19T02:22:16.629Z,16.50
2018-07-19T02:27:14.262Z,16.50
2018-07-19T02:29:43.258Z,16.40
2018-07-19T02:32:12.325Z,16.40
2018-07-19T02:34:41.376Z,16.30
2018-07-19T02:37:10.469Z,16.30
2018-07-19T02:39:39.424Z,16.20
2018-07-19T02:42:08.657Z,16.20
2018-07-19T02:44:37.648Z,16.20
2018-07-19T02:47:06.883Z,16.20
2018-07-19T02:49:35.917Z,16.20
2018-07-19T02:52:04.907Z,16.10
2018-07-19T02:54:33.869Z,16.10
2018-07-19T02:57:02.914Z,16.00
2018-07-19T02:59:31.977Z,16.00
2018-07-19T03:02:01.013Z,15.90
2018-07-19T03:04:30.007Z,15.90
2018-07-19T03:06:59.006Z,15.90
2018-07-19T03:09:28.106Z,16.00
2018-07-19T03:11:57.070Z,16.00
2018-07-19T03:14:26.132Z,16.00
2018-07-19T03:16:55.105Z,15.90
2018-07-19T03:21:52.876Z,16.00
2018-07-19T03:26:50.429Z,16.00
2018-07-19T03:29:19.429Z,15.90
2018-07-19T03:31:48.385Z,15.90
2018-07-19T03:34:17.401Z,15.90
2018-07-19T03:36:46.421Z,15.90
2018-07-19T03:39:15.397Z,15.80
2018-07-19T03:41:44.414Z,15.80
2018-07-19T03:44:13.437Z,15.90
2018-07-19T03:46:48.901Z,15.90
2018-07-19T03:49:17.895Z,15.90
2018-07-19T03:51:46.933Z,16.00
2018-07-19T03:54:15.887Z,16.20
2018-07-19T03:56:44.861Z,16.70
2018-07-19T03:59:13.905Z,17.10
2018-07-19T04:04:11.384Z,17.40
2018-07-19T04:06:40.288Z,17.50
2018-07-19T04:11:37.957Z,17.50
2018-07-19T04:14:07.154Z,17.60
2018-07-19T04:16:36.432Z,17.60
2018-07-19T04:19:05.420Z,17.70
2018-07-19T04:21:34.392Z,17.80
2018-07-19T04:24:03.340Z,17.90
2018-07-19T04:29:00.844Z,17.90
2018-07-19T04:31:29.879Z,17.90
2018-07-19T04:33:59.128Z,18.00
2018-07-19T04:36:28.059Z,18.00
2018-07-19T04:38:56.960Z,18.00
2018-07-19T04:41:25.948Z,17.90
2018-07-19T04:43:54.957Z,18.00
2018-07-19T04:46:23.909Z,18.00
2018-07-19T04:48:52.885Z,18.00
2018-07-19T04:51:21.858Z,18.00
2018-07-19T04:53:51.032Z,18.10
2018-07-19T04:56:19.974Z,18.10
2018-07-19T04:58:48.956Z,18.20
2018-07-19T05:01:17.915Z,18.20
2018-07-19T05:03:46.945Z,18.20
2018-07-19T05:06:15.940Z,18.30
2018-07-19T05:08:44.882Z,18.50
2018-07-19T05:11:13.933Z,18.60
2018-07-19T05:13:42.883Z,18.60
2018-07-19T05:18:40.669Z,18.70
2018-07-19T05:23:38.589Z,19.00
2018-07-19T05:26:07.614Z,19.10
2018-07-19T05:28:36.629Z,19.20
2018-07-19T05:31:05.604Z,19.30
2018-07-19T05:33:34.574Z,19.30
2018-07-19T05:36:03.594Z,19.50
2018-07-19T05:38:32.617Z,19.60
2018-07-19T05:41:01.611Z,19.80
2018-07-19T05:43:31.665Z,19.90
2018-07-19T05:46:00.878Z,20.00
2018-07-19T05:48:30.265Z,20.10
2018-07-19T05:50:59.262Z,20.20
2018-07-19T05:53:28.410Z,20.30
2018-07-19T05:55:57.376Z,20.40
2018-07-19T05:58:26.401Z,20.60
2018-07-19T06:00:55.408Z,20.70
2018-07-19T06:03:24.450Z,20.70
2018-07-19T06:05:53.509Z,20.90
2018-07-19T06:08:22.802Z,20.90
2018-07-19T06:10:51.829Z,21.00
2018-07-19T06:13:20.841Z,21.10
2018-07-19T06:15:49.861Z,21.30
2018-07-19T06:18:18.892Z,21.40
2018-07-19T06:20:47.808Z,21.50
2018-07-19T06:23:16.759Z,21.70
2018-07-19T06:25:45.691Z,21.70
2018-07-19T06:28:14.717Z,21.80
2018-07-19T06:33:12.187Z,21.90
2018-07-19T06:38:09.645Z,22.00
2018-07-19T06:40:38.634Z,22.10
2018-07-19T06:43:07.631Z,22.30
2018-07-19T06:45:36.533Z,22.40
2018-07-19T06:48:06.832Z,22.50
2018-07-19T06:50:35.745Z,22.60
2018-07-19T06:53:05.085Z,22.70
2018-07-19T06:55:34.028Z,22.80
2018-07-19T06:58:02.929Z,23.00
2018-07-19T07:00:31.883Z,23.10
2018-07-19T07:03:00.832Z,23.20
2018-07-19T07:05:29.820Z,23.30
2018-07-19T07:07:58.742Z,23.40
2018-07-19T07:10:27.678Z,23.50
2018-07-19T07:12:56.606Z,23.70
2018-07-19T07:15:25.557Z,23.90
2018-07-19T07:17:54.472Z,24.00
2018-07-19T07:20:23.439Z,24.20
2018-07-19T07:22:52.406Z,24.30
2018-07-19T07:25:21.398Z,24.50
2018-07-19T07:27:50.282Z,24.60
2018-07-19T07:30:19.201Z,24.70
2018-07-19T07:32:48.136Z,24.80
2018-07-19T07:37:45.566Z,25.00
2018-07-19T07:40:14.536Z,25.10
2018-07-19T07:42:43.444Z,25.20
2018-07-19T07:45:12.768Z,25.20
2018-07-19T07:47:41.652Z,25.30
2018-07-19T07:50:10.701Z,25.40
2018-07-19T07:52:39.596Z,25.60
2018-07-19T07:55:08.630Z,25.70
2018-07-19T07:57:37.549Z,25.80
2018-07-19T08:00:06.749Z,25.90
2018-07-19T08:05:04.312Z,26.00
2018-07-19T08:07:33.211Z,26.10
2018-07-19T08:10:02.084Z,26.20
2018-07-19T08:12:31.029Z,26.30
2018-07-19T08:15:00.023Z,26.40
2018-07-19T08:17:29.153Z,26.40
2018-07-19T08:19:58.304Z,26.40
2018-07-19T08:22:27.564Z,26.40
2018-07-19T08:24:56.500Z,26.50
2018-07-19T08:27:25.446Z,26.60
2018-07-19T08:29:54.395Z,26.70
2018-07-19T08:32:23.390Z,26.70
2018-07-19T08:34:52.954Z,26.90
2018-07-19T08:37:21.896Z,27.00
2018-07-19T08:39:50.865Z,27.00
2018-07-19T08:42:19.788Z,27.20
2018-07-19T08:44:48.728Z,27.30
2018-07-19T08:49:47.584Z,27.60
2018-07-19T08:52:17.533Z,27.60
2018-07-19T08:54:46.530Z,27.70
2018-07-19T08:57:15.929Z,27.80
2018-07-19T09:02:13.412Z,27.90
2018-07-19T09:04:42.307Z,28.00
2018-07-19T09:07:11.221Z,28.10
2018-07-19T09:09:40.116Z,28.20
2018-07-19T09:12:09.056Z,28.20
2018-07-19T09:14:38.014Z,28.20
2018-07-19T09:17:07.135Z,28.30
2018-07-19T09:19:36.135Z,28.40
2018-07-19T09:24:33.501Z,28.80
2018-07-19T09:27:02.477Z,28.90
2018-07-19T09:29:31.422Z,28.90
2018-07-19T09:34:28.828Z,29.00
2018-07-19T09:36:57.756Z,29.00
2018-07-19T09:39:26.650Z,29.10
2018-07-19T09:41:55.547Z,29.30
2018-07-19T09:44:24.504Z,29.30
2018-07-19T09:46:53.384Z,29.20
2018-07-19T09:49:22.957Z,29.20
2018-07-19T09:51:51.840Z,29.30
2018-07-19T09:56:54.736Z,29.70
2018-07-19T10:01:52.231Z,30.10
2018-07-19T10:09:18.516Z,30.00
2018-07-19T10:11:47.452Z,30.00
2018-07-19T10:14:16.397Z,30.10
2018-07-19T10:16:45.352Z,30.10
2018-07-19T10:19:14.288Z,30.30
2018-07-19T10:21:43.400Z,30.40
2018-07-19T10:24:12.407Z,30.40
2018-07-19T10:26:41.425Z,30.60
2018-07-19T10:29:10.432Z,30.70
2018-07-19T10:31:40.246Z,30.70
2018-07-19T10:34:09.279Z,30.80
2018-07-19T10:36:38.189Z,31.00
2018-07-19T10:39:08.777Z,31.20
2018-07-19T10:41:38.133Z,31.40
2018-07-19T10:46:36.808Z,31.00
2018-07-19T10:49:05.765Z,31.10
2018-07-19T10:54:03.200Z,31.70
2018-07-19T10:56:32.112Z,31.90
2018-07-19T10:59:01.241Z,32.00
2018-07-19T11:01:32.140Z,32.20
2018-07-19T11:04:01.075Z,32.20
2018-07-19T11:06:30.000Z,32.00
2018-07-19T11:08:58.901Z,31.80
2018-07-19T11:11:27.852Z,31.80
2018-07-19T11:13:56.726Z,31.80
2018-07-19T11:16:25.622Z,32.20
2018-07-19T11:18:54.584Z,32.50
2018-07-19T11:21:23.507Z,32.70
2018-07-19T11:23:52.577Z,32.90
2018-07-19T11:26:21.520Z,33.20
2018-07-19T11:28:50.409Z,33.00
2018-07-19T11:31:19.346Z,33.10
2018-07-19T11:33:48.273Z,33.20
2018-07-19T11:36:17.201Z,33.50
2018-07-19T11:38:46.480Z,33.70
2018-07-19T11:41:15.957Z,34.00
2018-07-19T11:43:44.920Z,34.30
2018-07-19T11:46:13.879Z,34.30
2018-07-19T11:48:42.816Z,34.40
2018-07-19T11:51:11.741Z,34.50
2018-07-19T11:53:40.660Z,34.60
2018-07-19T11:56:09.592Z,34.50
2018-07-19T11:58:38.488Z,34.10
2018-07-19T12:01:07.456Z,33.80
2018-07-19T12:03:36.384Z,33.60
2018-07-19T12:06:05.317Z,33.90
2018-07-19T12:08:34.256Z,34.20
2018-07-19T12:13:32.910Z,34.70
2018-07-19T12:16:02.369Z,35.00
2018-07-19T12:18:36.594Z,35.20
2018-07-19T12:21:11.912Z,35.30
2018-07-19T12:23:52.723Z,35.40
2018-07-19T12:26:22.985Z,35.40
2018-07-19T12:28:52.937Z,35.50
2018-07-19T12:31:30.699Z,35.50
2018-07-19T12:34:15.357Z,35.50
2018-07-19T12:36:44.627Z,35.80
2018-07-19T12:39:14.173Z,36.00
2018-07-19T12:41:43.105Z,36.10
2018-07-19T12:44:12.670Z,36.00
2018-07-19T12:46:41.580Z,36.00
2018-07-19T12:49:10.648Z,36.10
2018-07-19T12:51:39.520Z,36.10
2018-07-19T12:54:08.445Z,36.20
2018-07-19T12:56:37.372Z,36.40
2018-07-19T12:59:06.266Z,36.50
2018-07-19T13:01:35.178Z,36.60
2018-07-19T13:04:05.365Z,36.70
2018-07-19T13:06:35.362Z,36.70
2018-07-19T13:09:06.569Z,36.40
2018-07-19T13:11:35.696Z,36.20
2018-07-19T13:14:06.204Z,36.20
2018-07-19T13:16:35.275Z,36.30
2018-07-19T13:19:04.457Z,36.60
2018-07-19T13:21:38.054Z,36.80
2018-07-19T13:24:07.144Z,36.60
2018-07-19T13:26:36.381Z,36.80
2018-07-19T13:29:05.463Z,36.90
2018-07-19T13:31:45.546Z,37.20
2018-07-19T13:34:20.896Z,37.20
2018-07-19T13:36:49.833Z,36.90
2018-07-19T13:39:18.756Z,36.70
2018-07-19T13:41:50.575Z,36.80
2018-07-19T13:44:19.660Z,37.00
2018-07-19T13:46:48.588Z,37.30
2018-07-19T13:49:17.458Z,37.50
2018-07-19T13:51:46.329Z,37.80
2018-07-19T13:54:26.209Z,37.80
2018-07-19T13:56:55.085Z,37.60
2018-07-19T13:59:23.906Z,37.60
2018-07-19T14:01:52.785Z,37.40
2018-07-19T14:04:21.732Z,37.30
2018-07-19T14:06:50.568Z,37.40
2018-07-19T14:09:21.407Z,37.00
2018-07-19T14:12:03.960Z,36.80
2018-07-19T14:14:32.866Z,36.80
2018-07-19T14:19:31.134Z,36.40
2018-07-19T14:22:00.000Z,36.70
2018-07-19T14:24:28.956Z,37.10
2018-07-19T14:29:26.300Z,37.40
2018-07-19T14:31:55.405Z,37.60
2018-07-19T14:36:52.817Z,37.60
2018-07-19T14:39:21.841Z,37.40
2018-07-19T14:41:50.722Z,37.50
2018-07-19T14:44:19.702Z,37.50
2018-07-19T14:46:49.642Z,37.60
2018-07-19T14:49:18.964Z,37.60
2018-07-19T14:51:47.816Z,37.60
2018-07-19T14:54:19.412Z,37.80
2018-07-19T14:56:48.248Z,37.80
2018-07-19T14:59:17.144Z,37.80
2018-07-19T15:01:49.003Z,37.80
2018-07-19T15:04:18.074Z,37.90
2018-07-19T15:06:47.804Z,37.80
2018-07-19T15:09:16.743Z,37.60
2018-07-19T15:11:45.657Z,37.30
2018-07-19T15:14:14.529Z,37.20
2018-07-19T15:16:43.492Z,37.30
2018-07-19T15:19:12.355Z,37.40
2018-07-19T15:21:41.392Z,37.20
2018-07-19T15:24:10.336Z,37.20
2018-07-19T15:26:39.275Z,37.10
2018-07-19T15:29:09.116Z,37.20
2018-07-19T15:34:06.502Z,37.30
2018-07-19T15:36:35.714Z,37.20
2018-07-19T15:39:06.504Z,37.20
2018-07-19T15:41:36.288Z,37.30
2018-07-19T15:44:05.191Z,37.30
2018-07-19T15:46:34.040Z,37.30
2018-07-19T15:49:02.870Z,37.20
2018-07-19T15:51:31.819Z,37.10
2018-07-19T15:54:08.942Z,37.20
2018-07-19T15:56:46.173Z,37.00
2018-07-19T15:59:18.140Z,36.90
2018-07-19T16:01:49.997Z,36.70
2018-07-19T16:04:28.013Z,36.50
2018-07-19T16:06:58.271Z,36.40
2018-07-19T16:09:27.694Z,36.10
2018-07-19T16:11:58.503Z,36.10
2018-07-19T16:14:35.486Z,36.00
2018-07-19T16:17:06.181Z,35.70
2018-07-19T16:19:40.472Z,35.70
2018-07-19T16:22:11.549Z,35.80
2018-07-19T16:24:43.598Z,35.90
2018-07-19T16:27:18.404Z,35.90
2018-07-19T16:29:48.952Z,35.90
2018-07-19T16:32:20.049Z,35.90
2018-07-19T16:34:51.062Z,35.80
2018-07-19T16:37:22.459Z,35.80
2018-07-19T16:39:54.075Z,35.80
2018-07-19T16:42:27.702Z,35.80
2018-07-19T16:44:57.909Z,35.50
2018-07-19T16:47:30.137Z,35.30
2018-07-19T16:50:00.636Z,35.40
2018-07-19T16:52:33.445Z,35.40
2018-07-19T16:55:11.177Z,35.00
2018-07-19T16:57:41.837Z,34.90
2018-07-19T17:00:12.919Z,34.90
2018-07-19T17:02:44.158Z,35.00
2018-07-19T17:05:20.671Z,34.90
2018-07-19T17:07:51.711Z,34.80
2018-07-19T17:10:22.581Z,34.50
2018-07-19T17:12:55.503Z,34.40
2018-07-19T17:15:32.314Z,34.30
2018-07-19T17:18:04.907Z,34.20
2018-07-19T17:20:37.119Z,34.20
2018-07-19T17:23:07.252Z,34.00
2018-07-19T17:25:43.896Z,33.90
2018-07-19T17:28:15.331Z,33.80
2018-07-19T17:30:49.610Z,33.70
2018-07-19T17:33:21.258Z,33.60
2018-07-19T17:35:52.281Z,33.60
2018-07-19T17:38:23.041Z,34.50
2018-07-19T17:40:56.167Z,36.60
2018-07-19T17:43:27.280Z,38.30
2018-07-19T17:45:56.549Z,39.50
2018-07-19T17:48:25.495Z,40.00
2018-07-19T17:50:54.385Z,40.20
2018-07-19T17:53:23.292Z,40.60
2018-07-19T17:55:52.213Z,40.80
2018-07-19T17:58:21.165Z,40.60
2018-07-19T18:00:50.072Z,40.40
2018-07-19T18:03:19.054Z,40.00
2018-07-19T18:05:49.048Z,39.50
2018-07-19T18:08:18.164Z,39.00
2018-07-19T18:10:47.219Z,38.50
2018-07-19T18:13:16.116Z,37.30
2018-07-19T18:15:48.306Z,35.80
2018-07-19T18:18:17.421Z,34.30
2018-07-19T18:20:46.420Z,33.20
2018-07-19T18:23:15.432Z,32.20
2018-07-19T18:25:47.761Z,31.60
2018-07-19T18:28:16.695Z,31.00
2018-07-19T18:30:45.631Z,30.40
2018-07-19T18:33:14.590Z,29.80
2018-07-19T18:35:43.950Z,29.30
2018-07-19T18:38:32.822Z,28.90
2018-07-19T18:41:02.405Z,28.70
2018-07-19T18:43:43.766Z,28.50
2018-07-19T18:46:12.788Z,28.30
2018-07-19T18:48:41.720Z,28.00
2018-07-19T18:51:10.674Z,27.90
2018-07-19T18:53:39.621Z,27.80
2018-07-19T18:56:08.638Z,27.50
2018-07-19T18:58:37.677Z,27.30
2018-07-19T19:01:06.744Z,27.10
2018-07-19T19:03:35.740Z,26.90
2018-07-19T19:06:04.781Z,26.60
2018-07-19T19:08:33.769Z,26.50
2018-07-19T19:11:02.724Z,26.40
2018-07-19T19:13:31.773Z,26.20
2018-07-19T19:16:00.743Z,26.10
2018-07-19T19:18:29.740Z,26.00
2018-07-19T19:20:59.539Z,25.80
2018-07-19T19:25:57.681Z,25.60
2018-07-19T19:28:27.445Z,25.50
2018-07-19T19:30:56.960Z,25.40
2018-07-19T19:33:26.063Z,25.30
2018-07-19T19:36:20.936Z,25.20
2018-07-19T19:39:06.209Z,25.10
2018-07-19T19:41:40.081Z,25.00
2018-07-19T19:44:09.355Z,24.90
2018-07-19T19:46:38.498Z,24.70
2018-07-19T19:49:07.591Z,24.60
2018-07-19T19:51:36.652Z,24.50
2018-07-19T19:54:05.865Z,24.30
2018-07-19T19:59:03.506Z,24.00
2018-07-19T20:01:32.560Z,23.80
2018-07-19T20:04:01.498Z,23.60
2018-07-19T20:06:30.656Z,23.50
2018-07-19T20:08:59.641Z,23.40
2018-07-19T20:11:35.708Z,23.40
2018-07-19T20:14:20.573Z,23.40
2018-07-19T20:16:49.560Z,23.30
2018-07-19T20:21:52.439Z,23.20
2018-07-19T20:24:27.843Z,23.00
2018-07-19T20:26:57.144Z,23.00
2018-07-19T20:29:26.358Z,22.90
2018-07-19T20:31:56.104Z,22.70
2018-07-19T20:34:26.325Z,22.60
2018-07-19T20:36:55.398Z,22.50
2018-07-19T20:39:24.754Z,22.40
2018-07-19T20:44:42.561Z,22.20
2018-07-19T20:47:11.541Z,22.10
2018-07-19T20:49:40.475Z,22.10
2018-07-19T20:54:37.960Z,21.90
2018-07-19T20:57:08.074Z,21.80
2018-07-19T20:59:37.377Z,21.70
2018-07-19T21:02:08.115Z,21.70
2018-07-19T21:04:37.097Z,21.70
2018-07-19T21:09:34.560Z,21.60
2018-07-19T21:12:03.445Z,21.60
2018-07-19T21:14:32.441Z,21.50
2018-07-19T21:17:01.327Z,21.30
2018-07-19T21:19:37.779Z,21.30
2018-07-19T21:22:07.101Z,21.20
2018-07-19T21:24:36.191Z,21.10
2018-07-19T21:27:05.386Z,20.90
2018-07-19T21:29:34.393Z,20.90
2018-07-19T21:32:03.360Z,20.80
2018-07-19T21:34:32.372Z,20.80
2018-07-19T21:37:01.928Z,20.80
2018-07-19T21:39:30.893Z,20.60
2018-07-19T21:41:59.857Z,20.50
2018-07-19T21:44:28.864Z,20.30
2018-07-19T21:46:57.829Z,20.30
2018-07-19T21:49:26.757Z,20.20
2018-07-19T21:56:53.685Z,19.80
2018-07-19T21:59:22.580Z,19.80
2018-07-19T22:01:51.440Z,19.80
2018-07-19T22:04:20.388Z,19.80
2018-07-19T22:06:49.320Z,19.80
2018-07-19T22:09:18.325Z,19.80
2018-07-19T22:11:47.248Z,19.90
2018-07-19T22:14:16.169Z,19.70
2018-07-19T22:16:45.504Z,19.60
2018-07-19T22:19:14.410Z,19.50
2018-07-19T22:21:43.307Z,19.40
2018-07-19T22:24:12.305Z,19.30
2018-07-19T22:26:41.236Z,19.20
2018-07-19T22:31:38.707Z,19.20
2018-07-19T22:34:14.232Z,19.20
2018-07-19T22:36:43.184Z,19.30
2018-07-19T22:39:12.668Z,19.20
2018-07-19T22:41:41.695Z,19.20
2018-07-19T22:44:10.648Z,19.20
2018-07-19T22:46:39.510Z,19.20
2018-07-19T22:49:08.459Z,19.10
2018-07-19T22:51:37.307Z,19.10
2018-07-19T22:54:06.265Z,19.00
2018-07-19T22:56:35.111Z,19.00
2018-07-19T22:59:04.029Z,19.00
2018-07-19T23:01:32.895Z,18.90
2018-07-19T23:04:01.840Z,18.90
2018-07-19T23:06:30.663Z,18.80
2018-07-19T23:08:59.562Z,18.80
2018-07-19T23:11:28.423Z,18.70
2018-07-19T23:13:57.320Z,18.70
2018-07-19T23:16:26.788Z,18.70
2018-07-19T23:18:55.648Z,18.60
2018-07-19T23:21:24.569Z,18.60
2018-07-19T23:23:53.497Z,18.50
2018-07-19T23:26:22.500Z,18.40
2018-07-19T23:31:20.033Z,18.10
2018-07-19T23:33:49.144Z,18.10
2018-07-19T23:36:37.624Z,18.10
2018-07-19T23:39:11.482Z,18.20
2018-07-19T23:41:45.323Z,18.20
2018-07-19T23:44:26.064Z,18.00
2018-07-19T23:47:00.515Z,18.00
2018-07-19T23:49:29.427Z,18.00
2018-07-19T23:51:58.433Z,18.00
2018-07-19T23:54:27.393Z,18.00
2018-07-19T23:56:56.900Z,17.90
2018-07-19T23:59:25.804Z,18.00
